KAPG/APG METAR and TAF weather

Enter ICAO airport designator
Station Type Date Time Source
KAPG METAR 2019/04/25 21:48 UTC NOAA

KAPG 252148Z 06005KT 7SM OVC060 19/10 A2989 RMK SLPNO $


Station Type Date Time Source
KAPG Decoded METAR 2019/04/25 21:48 UTC NOAA

Phillips Army Air Field / Aberdeen, MD, United States (KAPG) 39-28N 076-10W
Apr 25, 2019 - 05:48 PM EDT / 2019.04.25 2148 UTC
Wind: from the ENE (060 degrees) at 6 MPH (5 KT):0
Visibility: 7 mile(s):0
Sky conditions: overcast
Temperature: 66 F (19 C)
Dew Point: 50 F (10 C)
Relative Humidity: 55%
Pressure (altimeter): 29.89 in. Hg (1012 hPa)
ob: KAPG 252148Z 06005KT 7SM OVC060 19/10 A2989 RMK SLPNO
cycle: 22

Station Type Date Time Source
KAPG TAF UTC NOAA

Error!

Example: see airport list